STAK1: Blue River, Stanley, KS

Data processed at Wed May 22 2019 23:30


All information presented herein is the property of the government of the United States of America and may be revised or deleted at any time without prior notice.
Dissemination of this information without the expressed written consent of the Public Affairs Office, Tulsa District U.S. Army Corps of Engineers is strictly prohibited.
These data are gathered electronically and, as presented, have not undergone any form of quality control. These data are not guaranteed to be valid or correct.
Go to home page.
Go to station list.
Go to home page.

Downstream station:


Previous Day
Next Day
Current Day
    
SHEF ID:       STAK1     BLUE R NR STANLEY, KS
STATION TYPE:  

               PRECIP     STAGE  RIV-FLOW  BAT-LOAD
                   in        ft       cfs      volt
              Ccp-Rev   Ccp-Rev   Ccp-Rev   Ccp-Rev
(US/Central)
05/22 00:00      0.00      7.68       656     12.65
05/22 01:00      0.00      7.50       603     12.65
05/22 02:00      0.00      7.30       545     12.60
05/22 03:00      0.00      7.17       510     12.60
05/22 04:00      0.00      7.04       475     12.60
05/22 05:00      0.00      6.91       442     12.60
05/22 06:00      0.00      6.78       410     12.60
05/22 07:00      0.00      6.70       391     12.60
05/22 08:00      0.00      6.57       360     12.71
05/22 09:00      0.00      6.50       345     13.24
05/22 10:00      0.00      6.41       325     13.36
05/22 11:00      0.00      6.33       308     13.48
05/22 12:00      0.00      6.26       293     13.59
05/22 13:00      0.00      6.19       279     13.53
05/22 14:00      0.00      6.13       267     13.48
05/22 15:00      0.00      6.07       255     13.48
05/22 16:00      0.00      6.00       242     13.07
05/22 17:00      0.00      5.94       231     13.07
05/22 18:00      0.00      5.89       222     13.00
05/22 19:00      0.00      5.86       216     12.89
05/22 20:00      0.00      5.98       238     12.89
05/22 21:00      0.00      6.75       403     12.89
05/22 22:00      0.00      6.91       442     12.89
05/22 23:00      ----      ----      ----      ----